»·PEaware :: PHSQV LRBS-LOWG

PHSQV :: LRBS-LOWG

FLIGHT INFORMATION

Flight Status: Arrived
Operator: Unknown
More flights by this operator :: More flights under this callsign
Pilot: Gabor H. (24209)
Aircraft: Unknown
(EPIC)
More flights by this aircraft type
Origin: LRBS Baneasa
Romania
Destination: LOWG Graz
Austria
More flights between these airports :: More routes between these airports
Route: SOKRU M747 NEKUL P975 MOPUG DIMLO NIDLO GBG
File this flight plan on PilotEdge
Remarks:
Altitude:
(Current/Filed)
34,000ft
Speed:
(Current/Filed)
325kts
Departed: 14-Jun-21 02:55 AM
Arrived: 14-Jun-21 04:53 AM
Distance/Time
Traveled:
470nm/1:57
Distance/Time
To Go:
Arrived

Flight Plot

Page will automatically refresh every two minutes.

Flight plan parsing failed; only flown route is shown


Map Options




Map Legend


Flown Route
Filed Route
Departure Airport
Arrival Airport
Navaid (VOR, NDB)
Fix

Horizontal Profiles

Position Reports

Time Latitude Longitude Heading Altitude Ground
Speed
14-Jun-21 02:54 44.498890 26.081867 51 292ft 9kts
14-Jun-21 02:55 44.503145 26.107250 77 807ft 153kts
14-Jun-21 02:56 44.509931 26.183135 80 3044ft 213kts
14-Jun-21 02:56 44.516125 26.252532 80 5431ft 221kts
14-Jun-21 02:57 44.523792 26.338620 77 8229ft 228kts
14-Jun-21 02:58 44.576773 26.365793 346 10772ft 230kts
14-Jun-21 03:00 44.650133 26.337456 343 13468ft 242kts
14-Jun-21 03:01 44.709446 26.296212 303 15607ft 251kts
14-Jun-21 03:01 44.740739 26.226615 301 17226ft 256kts
14-Jun-21 03:02 44.778797 26.140502 301 18777ft 263kts
14-Jun-21 03:03 44.817769 26.052056 301 20106ft 270kts
14-Jun-21 03:04 44.857463 25.961654 302 21377ft 270kts
14-Jun-21 03:05 44.882627 25.860999 287 22365ft 276kts
14-Jun-21 03:06 44.904437 25.757031 287 23355ft 277kts
14-Jun-21 03:07 44.926093 25.653183 287 24342ft 275kts
14-Jun-21 03:08 44.947541 25.549865 287 25330ft 273kts
14-Jun-21 03:09 44.968584 25.448005 287 26313ft 269kts
14-Jun-21 03:10 44.989319 25.347127 286 27299ft 266kts
14-Jun-21 03:11 45.009609 25.247852 286 28282ft 261kts
14-Jun-21 03:12 45.029498 25.150050 285 29267ft 256kts
14-Jun-21 03:13 45.049013 25.053538 286 30181ft 258kts
14-Jun-21 03:14 45.068789 24.955314 286 31004ft 261kts
14-Jun-21 03:15 45.088729 24.855903 286 31718ft 265kts
14-Jun-21 03:16 45.108826 24.755197 287 32349ft 268kts
14-Jun-21 03:17 45.129099 24.653155 287 32913ft 271kts
14-Jun-21 03:18 45.149477 24.549973 287 33409ft 274kts
14-Jun-21 03:19 45.169929 24.445922 287 33844ft 276kts
14-Jun-21 03:20 45.190657 24.339869 287 34078ft 284kts
14-Jun-21 03:21 45.212048 24.229859 287 34076ft 293kts
14-Jun-21 03:22 45.233782 24.117395 287 34075ft 298kts
14-Jun-21 03:23 45.255680 24.003406 287 34075ft 302kts
14-Jun-21 03:24 45.277612 23.888538 288 34075ft 302kts
14-Jun-21 03:25 45.299484 23.773303 288 34075ft 303kts
14-Jun-21 03:26 45.321237 23.657943 288 34075ft 303kts
14-Jun-21 03:27 45.342873 23.542410 288 34075ft 303kts
14-Jun-21 03:28 45.364352 23.427009 289 34075ft 302kts
14-Jun-21 03:29 45.385735 23.311395 288 34101ft 301kts
14-Jun-21 03:30 45.406833 23.196627 289 34101ft 301kts
14-Jun-21 03:31 45.427867 23.081468 289 34101ft 300kts
14-Jun-21 03:32 45.448671 22.966907 289 34101ft 299kts
14-Jun-21 03:33 45.469379 22.852155 289 34101ft 299kts
14-Jun-21 03:34 45.489838 22.738044 290 34106ft 298kts
14-Jun-21 03:35 45.510151 22.624035 290 34118ft 297kts
14-Jun-21 03:36 45.541302 22.517968 303 34128ft 289kts
14-Jun-21 03:37 45.577585 22.415565 303 34127ft 289kts
14-Jun-21 03:38 45.613728 22.313301 302 34126ft 288kts
14-Jun-21 03:39 45.649742 22.211007 303 34126ft 288kts
14-Jun-21 03:40 45.685638 22.108685 303 34128ft 288kts
14-Jun-21 03:41 45.721286 22.006663 303 34126ft 288kts
14-Jun-21 03:42 45.756899 21.904345 303 34125ft 287kts
14-Jun-21 03:43 45.792366 21.802041 303 34125ft 287kts
14-Jun-21 03:44 45.827714 21.699718 303 34124ft 286kts
14-Jun-21 03:45 45.862786 21.597786 303 34125ft 285kts
14-Jun-21 03:46 45.897634 21.496112 304 34124ft 284kts
14-Jun-21 03:47 45.932396 21.394406 304 34123ft 282kts
14-Jun-21 03:48 45.966653 21.293820 304 34122ft 280kts
14-Jun-21 03:49 46.000677 21.193539 304 34121ft 278kts
14-Jun-21 03:50 46.034413 21.093750 305 34121ft 278kts
14-Jun-21 03:51 46.068225 20.993324 305 34119ft 278kts
14-Jun-21 03:52 46.101664 20.893636 306 34124ft 276kts
14-Jun-21 03:53 46.134980 20.793943 306 34143ft 277kts
14-Jun-21 03:54 46.165436 20.691334 294 34159ft 288kts
14-Jun-21 03:55 46.181885 20.577905 293 34150ft 289kts
14-Jun-21 03:56 46.197676 20.464771 294 34152ft 287kts
14-Jun-21 03:57 46.213212 20.352551 294 34154ft 284kts
14-Jun-21 03:58 46.228558 20.240875 293 34158ft 283kts
14-Jun-21 03:59 46.243665 20.130059 293 34211ft 279kts
14-Jun-21 04:00 46.258563 20.020009 293 34213ft 279kts
14-Jun-21 04:01 46.273276 19.910439 294 34213ft 279kts
14-Jun-21 04:02 46.287932 19.800466 294 34213ft 278kts
14-Jun-21 04:03 46.302420 19.690904 294 34212ft 278kts
14-Jun-21 04:04 46.316862 19.580836 294 34212ft 278kts
14-Jun-21 04:05 46.331173 19.470891 295 34212ft 279kts
14-Jun-21 04:06 46.345354 19.361038 295 34211ft 279kts
14-Jun-21 04:07 46.359529 19.250445 295 34212ft 280kts
14-Jun-21 04:08 46.373639 19.139400 295 34212ft 280kts
14-Jun-21 04:09 46.387629 19.028451 295 34212ft 281kts
14-Jun-21 04:10 46.401504 18.917503 296 34211ft 280kts
14-Jun-21 04:11 46.415289 18.806321 296 34211ft 280kts
14-Jun-21 04:12 46.428881 18.695781 296 34211ft 279kts
14-Jun-21 04:13 46.442354 18.585296 297 34210ft 277kts
14-Jun-21 04:14 46.455643 18.475425 297 34210ft 276kts
14-Jun-21 04:15 46.468736 18.366224 297 34209ft 275kts
14-Jun-21 04:16 46.481676 18.257419 296 34209ft 274kts
14-Jun-21 04:17 46.494469 18.148921 296 34209ft 273kts
14-Jun-21 04:18 46.507157 18.040398 296 34209ft 272kts
14-Jun-21 04:19 46.519710 17.932093 296 34213ft 271kts
14-Jun-21 04:20 46.532076 17.824455 296 34222ft 271kts
14-Jun-21 04:21 46.544333 17.716936 296 34232ft 271kts
14-Jun-21 04:22 46.556546 17.608752 296 34234ft 271kts
14-Jun-21 04:23 46.568611 17.500978 296 34234ft 271kts
14-Jun-21 04:24 46.580665 17.392356 296 34234ft 273kts
14-Jun-21 04:25 46.593037 17.280488 294 33472ft 300kts
14-Jun-21 04:26 46.606820 17.153719 292 31769ft 333kts
14-Jun-21 04:27 46.621463 17.017456 291 29943ft 347kts
14-Jun-21 04:28 46.636333 16.877612 290 28083ft 354kts
14-Jun-21 04:29 46.651271 16.735518 289 26201ft 357kts
14-Jun-21 04:30 46.666083 16.592800 289 24312ft 360kts
14-Jun-21 04:31 46.680849 16.448674 288 22405ft 361kts
14-Jun-21 04:32 46.712895 16.319351 301 20569ft 328kts
14-Jun-21 04:33 46.746971 16.199004 301 18862ft 319kts
14-Jun-21 04:34 46.780489 16.080058 300 17184ft 316kts
14-Jun-21 04:35 46.817267 15.964852 308 15519ft 310kts
14-Jun-21 04:36 46.862841 15.857422 308 13869ft 311kts
14-Jun-21 04:37 46.900184 15.746734 296 12329ft 298kts
14-Jun-21 04:38 46.926670 15.638767 296 11423ft 272kts
14-Jun-21 04:39 46.973414 15.569488 349 10796ft 245kts
14-Jun-21 04:40 47.041386 15.550440 350 10200ft 260kts
14-Jun-21 04:41 47.113863 15.530428 350 9684ft 263kts
14-Jun-21 04:42 47.184900 15.510778 349 9167ft 259kts
14-Jun-21 04:43 47.255720 15.491105 350 8360ft 265kts
14-Jun-21 04:44 47.317541 15.448985 292 7544ft 257kts
14-Jun-21 04:45 47.293218 15.361305 195 7294ft 281kts
14-Jun-21 04:46 47.216224 15.377345 169 5656ft 273kts
14-Jun-21 04:47 47.150766 15.395531 169 4672ft 208kts
14-Jun-21 04:48 47.096100 15.410682 168 3316ft 189kts
14-Jun-21 04:49 47.049252 15.423601 167 2245ft 137kts
14-Jun-21 04:50 47.018968 15.431942 166 1543ft 99kts
14-Jun-21 04:51 46.995409 15.438493 172 1118ft 60kts
14-Jun-21 04:52 46.994034 15.442756 165 1118ft 8kts
14-Jun-21 04:53 46.993853 15.443882 349 1118ft 0kts
14-Jun-21 04:54 46.993853 15.443882 349 1118ft 0kts
14-Jun-21 04:55 46.993853 15.443882 349 1118ft 0kts
14-Jun-21 04:56 46.993853 15.443882 349 1118ft 0kts

Navigation Log

Ident Type
Flight plan parsing failed, navigation log unavailable